sensor_id;sensor_type;location;lat;lon;timestamp;P1;durP1;ratioP1;P2;durP2;ratioP2
42420;SDS011;28063;48.140;11.588;2023-04-03T00:01:13;7.15;;;5.35;;
42420;SDS011;28063;48.140;11.588;2023-04-03T00:03:40;6.45;;;4.95;;
42420;SDS011;28063;48.140;11.588;2023-04-03T00:06:06;9.13;;;5.40;;
42420;SDS011;28063;48.140;11.588;2023-04-03T00:08:34;6.68;;;5.18;;
42420;SDS011;28063;48.140;11.588;2023-04-03T00:11:00;8.20;;;5.82;;
42420;SDS011;28063;48.140;11.588;2023-04-03T00:13:26;8.00;;;5.35;;
42420;SDS011;28063;48.140;11.588;2023-04-03T00:15:52;8.38;;;5.88;;
42420;SDS011;28063;48.140;11.588;2023-04-03T00:18:18;7.88;;;5.15;;
42420;SDS011;28063;48.140;11.588;2023-04-03T00:20:44;6.57;;;5.30;;
42420;SDS011;28063;48.140;11.588;2023-04-03T00:23:10;7.85;;;4.70;;
42420;SDS011;28063;48.140;11.588;2023-04-03T00:25:36;6.38;;;4.93;;
42420;SDS011;28063;48.140;11.588;2023-04-03T00:28:02;9.63;;;5.53;;
42420;SDS011;28063;48.140;11.588;2023-04-03T00:30:29;8.93;;;5.10;;
42420;SDS011;28063;48.140;11.588;2023-04-03T00:32:55;6.45;;;4.85;;
42420;SDS011;28063;48.140;11.588;2023-04-03T00:35:21;6.20;;;4.93;;
42420;SDS011;28063;48.140;11.588;2023-04-03T00:37:47;7.35;;;5.07;;
42420;SDS011;28063;48.140;11.588;2023-04-03T00:40:15;6.18;;;4.68;;
42420;SDS011;28063;48.140;11.588;2023-04-03T00:42:42;5.80;;;4.40;;
42420;SDS011;28063;48.140;11.588;2023-04-03T00:47:43;6.70;;;4.47;;
42420;SDS011;28063;48.140;11.588;2023-04-03T00:50:09;5.85;;;3.75;;
42420;SDS011;28063;48.140;11.588;2023-04-03T00:52:35;6.35;;;4.78;;
42420;SDS011;28063;48.140;11.588;2023-04-03T00:55:04;7.25;;;5.13;;
42420;SDS011;28063;48.140;11.588;2023-04-03T00:57:32;6.65;;;4.75;;
42420;SDS011;28063;48.140;11.588;2023-04-03T01:00:06;6.55;;;3.80;;
42420;SDS011;28063;48.140;11.588;2023-04-03T01:02:35;5.60;;;4.25;;
42420;SDS011;28063;48.140;11.588;2023-04-03T01:05:01;6.93;;;4.50;;
42420;SDS011;28063;48.140;11.588;2023-04-03T01:07:28;5.63;;;4.15;;
42420;SDS011;28063;48.140;11.588;2023-04-03T01:09:56;5.57;;;4.05;;
42420;SDS011;28063;48.140;11.588;2023-04-03T01:12:29;5.40;;;3.70;;
42420;SDS011;28063;48.140;11.588;2023-04-03T01:15:07;4.95;;;3.65;;
42420;SDS011;28063;48.140;11.588;2023-04-03T01:17:38;7.50;;;4.07;;
42420;SDS011;28063;48.140;11.588;2023-04-03T01:25:21;5.55;;;4.45;;
42420;SDS011;28063;48.140;11.588;2023-04-03T01:27:46;6.00;;;3.75;;
42420;SDS011;28063;48.140;11.588;2023-04-03T01:30:12;8.23;;;5.00;;
42420;SDS011;28063;48.140;11.588;2023-04-03T01:32:41;5.25;;;4.30;;
42420;SDS011;28063;48.140;11.588;2023-04-03T01:35:08;6.20;;;4.13;;
42420;SDS011;28063;48.140;11.588;2023-04-03T01:37:34;6.60;;;4.13;;
42420;SDS011;28063;48.140;11.588;2023-04-03T01:40:00;9.27;;;4.10;;
42420;SDS011;28063;48.140;11.588;2023-04-03T01:42:26;7.40;;;4.97;;
42420;SDS011;28063;48.140;11.588;2023-04-03T01:44:51;4.93;;;4.13;;
42420;SDS011;28063;48.140;11.588;2023-04-03T01:47:17;6.03;;;3.90;;
42420;SDS011;28063;48.140;11.588;2023-04-03T01:49:43;5.70;;;4.10;;
42420;SDS011;28063;48.140;11.588;2023-04-03T01:52:08;6.82;;;4.80;;
42420;SDS011;28063;48.140;11.588;2023-04-03T01:54:34;7.47;;;4.80;;
42420;SDS011;28063;48.140;11.588;2023-04-03T01:57:00;5.95;;;4.70;;
42420;SDS011;28063;48.140;11.588;2023-04-03T01:59:25;4.68;;;3.90;;
42420;SDS011;28063;48.140;11.588;2023-04-03T02:01:51;5.95;;;4.32;;
42420;SDS011;28063;48.140;11.588;2023-04-03T02:04:17;6.78;;;4.70;;
42420;SDS011;28063;48.140;11.588;2023-04-03T02:06:42;7.13;;;4.38;;
42420;SDS011;28063;48.140;11.588;2023-04-03T02:09:08;7.45;;;4.32;;
42420;SDS011;28063;48.140;11.588;2023-04-03T02:11:34;6.43;;;3.97;;
42420;SDS011;28063;48.140;11.588;2023-04-03T02:13:59;5.25;;;3.72;;
42420;SDS011;28063;48.140;11.588;2023-04-03T02:16:25;4.80;;;3.25;;
42420;SDS011;28063;48.140;11.588;2023-04-03T02:18:50;7.15;;;3.83;;
42420;SDS011;28063;48.140;11.588;2023-04-03T02:21:16;5.97;;;4.15;;
42420;SDS011;28063;48.140;11.588;2023-04-03T02:23:42;4.82;;;3.60;;
42420;SDS011;28063;48.140;11.588;2023-04-03T02:26:10;4.50;;;3.20;;
42420;SDS011;28063;48.140;11.588;2023-04-03T02:28:37;9.00;;;3.80;;
42420;SDS011;28063;48.140;11.588;2023-04-03T02:31:03;6.07;;;3.55;;
42420;SDS011;28063;48.140;11.588;2023-04-03T02:33:31;5.47;;;3.53;;
42420;SDS011;28063;48.140;11.588;2023-04-03T02:35:57;4.22;;;3.13;;
42420;SDS011;28063;48.140;11.588;2023-04-03T02:38:24;3.17;;;2.72;;
42420;SDS011;28063;48.140;11.588;2023-04-03T02:40:50;2.92;;;2.55;;
42420;SDS011;28063;48.140;11.588;2023-04-03T02:43:16;5.75;;;2.97;;
42420;SDS011;28063;48.140;11.588;2023-04-03T02:45:43;4.13;;;3.00;;
42420;SDS011;28063;48.140;11.588;2023-04-03T02:48:08;3.20;;;2.90;;
42420;SDS011;28063;48.140;11.588;2023-04-03T02:50:36;3.63;;;2.95;;
42420;SDS011;28063;48.140;11.588;2023-04-03T02:53:02;5.43;;;2.97;;
42420;SDS011;28063;48.140;11.588;2023-04-03T02:55:28;3.72;;;2.70;;
42420;SDS011;28063;48.140;11.588;2023-04-03T02:57:54;3.65;;;2.80;;
42420;SDS011;28063;48.140;11.588;2023-04-03T03:00:20;5.50;;;2.92;;
42420;SDS011;28063;48.140;11.588;2023-04-03T03:02:45;2.50;;;2.28;;
42420;SDS011;28063;48.140;11.588;2023-04-03T03:05:11;3.25;;;2.25;;
42420;SDS011;28063;48.140;11.588;2023-04-03T03:07:36;2.90;;;2.15;;
42420;SDS011;28063;48.140;11.588;2023-04-03T03:10:02;3.60;;;2.03;;
42420;SDS011;28063;48.140;11.588;2023-04-03T03:12:28;3.75;;;2.00;;
42420;SDS011;28063;48.140;11.588;2023-04-03T03:14:54;4.88;;;2.40;;
42420;SDS011;28063;48.140;11.588;2023-04-03T03:17:20;3.20;;;2.00;;
42420;SDS011;28063;48.140;11.588;2023-04-03T03:19:45;6.70;;;2.50;;
42420;SDS011;28063;48.140;11.588;2023-04-03T03:22:11;4.00;;;2.80;;
42420;SDS011;28063;48.140;11.588;2023-04-03T03:24:37;3.03;;;2.65;;
42420;SDS011;28063;48.140;11.588;2023-04-03T03:27:02;3.90;;;2.42;;
42420;SDS011;28063;48.140;11.588;2023-04-03T03:29:28;3.30;;;2.20;;
42420;SDS011;28063;48.140;11.588;2023-04-03T03:31:54;3.33;;;2.47;;
42420;SDS011;28063;48.140;11.588;2023-04-03T03:34:20;2.40;;;2.17;;
42420;SDS011;28063;48.140;11.588;2023-04-03T03:36:45;3.33;;;2.38;;
42420;SDS011;28063;48.140;11.588;2023-04-03T03:39:14;2.20;;;1.73;;
42420;SDS011;28063;48.140;11.588;2023-04-03T03:41:40;2.25;;;2.00;;
42420;SDS011;28063;48.140;11.588;2023-04-03T03:44:06;4.35;;;2.03;;
42420;SDS011;28063;48.140;11.588;2023-04-03T03:46:31;1.90;;;1.73;;
42420;SDS011;28063;48.140;11.588;2023-04-03T03:48:57;2.35;;;1.90;;
42420;SDS011;28063;48.140;11.588;2023-04-03T03:51:23;3.30;;;1.75;;
42420;SDS011;28063;48.140;11.588;2023-04-03T03:53:49;5.63;;;2.38;;
42420;SDS011;28063;48.140;11.588;2023-04-03T03:56:14;3.08;;;2.15;;
42420;SDS011;28063;48.140;11.588;2023-04-03T03:58:40;1.88;;;1.55;;
42420;SDS011;28063;48.140;11.588;2023-04-03T04:01:06;3.38;;;2.28;;
42420;SDS011;28063;48.140;11.588;2023-04-03T04:03:32;4.57;;;2.42;;
42420;SDS011;28063;48.140;11.588;2023-04-03T04:05:58;2.85;;;2.58;;
42420;SDS011;28063;48.140;11.588;2023-04-03T04:08:24;3.63;;;2.38;;
42420;SDS011;28063;48.140;11.588;2023-04-03T04:10:51;5.82;;;2.75;;
42420;SDS011;28063;48.140;11.588;2023-04-03T04:13:17;2.53;;;1.75;;
42420;SDS011;28063;48.140;11.588;2023-04-03T04:15:43;3.30;;;2.70;;
42420;SDS011;28063;48.140;11.588;2023-04-03T04:18:09;3.80;;;2.53;;
42420;SDS011;28063;48.140;11.588;2023-04-03T04:20:35;2.33;;;2.13;;
42420;SDS011;28063;48.140;11.588;2023-04-03T04:23:00;3.20;;;2.20;;
42420;SDS011;28063;48.140;11.588;2023-04-03T04:25:26;3.78;;;2.22;;
42420;SDS011;28063;48.140;11.588;2023-04-03T04:27:52;2.67;;;2.05;;
42420;SDS011;28063;48.140;11.588;2023-04-03T04:30:17;1.75;;;1.52;;
42420;SDS011;28063;48.140;11.588;2023-04-03T04:32:43;4.05;;;1.95;;
42420;SDS011;28063;48.140;11.588;2023-04-03T04:35:09;3.35;;;2.10;;
42420;SDS011;28063;48.140;11.588;2023-04-03T04:37:35;2.90;;;2.13;;
42420;SDS011;28063;48.140;11.588;2023-04-03T04:40:01;2.67;;;1.58;;
42420;SDS011;28063;48.140;11.588;2023-04-03T04:42:27;1.90;;;1.58;;
42420;SDS011;28063;48.140;11.588;2023-04-03T04:44:52;5.22;;;2.10;;
42420;SDS011;28063;48.140;11.588;2023-04-03T04:47:18;2.85;;;2.30;;
42420;SDS011;28063;48.140;11.588;2023-04-03T04:49:44;2.88;;;1.90;;
42420;SDS011;28063;48.140;11.588;2023-04-03T04:52:10;2.97;;;1.88;;
42420;SDS011;28063;48.140;11.588;2023-04-03T04:54:36;3.63;;;1.92;;
42420;SDS011;28063;48.140;11.588;2023-04-03T04:57:01;2.80;;;1.70;;
42420;SDS011;28063;48.140;11.588;2023-04-03T04:59:27;8.98;;;2.55;;
42420;SDS011;28063;48.140;11.588;2023-04-03T05:01:52;4.35;;;2.58;;
42420;SDS011;28063;48.140;11.588;2023-04-03T05:04:18;4.45;;;2.40;;
42420;SDS011;28063;48.140;11.588;2023-04-03T05:06:44;2.03;;;1.65;;
42420;SDS011;28063;48.140;11.588;2023-04-03T05:09:10;3.05;;;1.92;;
42420;SDS011;28063;48.140;11.588;2023-04-03T05:11:36;2.05;;;1.63;;
42420;SDS011;28063;48.140;11.588;2023-04-03T05:14:02;5.90;;;2.55;;
42420;SDS011;28063;48.140;11.588;2023-04-03T05:16:32;3.50;;;2.28;;
42420;SDS011;28063;48.140;11.588;2023-04-03T05:18:58;3.28;;;2.08;;
42420;SDS011;28063;48.140;11.588;2023-04-03T05:21:23;2.22;;;2.03;;
42420;SDS011;28063;48.140;11.588;2023-04-03T05:23:51;2.53;;;1.70;;
42420;SDS011;28063;48.140;11.588;2023-04-03T05:26:17;2.65;;;1.65;;
42420;SDS011;28063;48.140;11.588;2023-04-03T05:28:43;1.70;;;1.60;;
42420;SDS011;28063;48.140;11.588;2023-04-03T05:31:08;1.33;;;1.20;;
42420;SDS011;28063;48.140;11.588;2023-04-03T05:33:34;3.03;;;1.80;;
42420;SDS011;28063;48.140;11.588;2023-04-03T05:36:03;1.98;;;1.70;;
42420;SDS011;28063;48.140;11.588;2023-04-03T05:38:30;3.00;;;1.80;;
42420;SDS011;28063;48.140;11.588;2023-04-03T05:40:56;3.10;;;2.10;;
42420;SDS011;28063;48.140;11.588;2023-04-03T05:43:22;4.07;;;2.15;;
42420;SDS011;28063;48.140;11.588;2023-04-03T05:45:48;3.40;;;2.10;;
42420;SDS011;28063;48.140;11.588;2023-04-03T05:48:13;4.30;;;2.05;;
42420;SDS011;28063;48.140;11.588;2023-04-03T05:50:39;3.20;;;2.05;;
42420;SDS011;28063;48.140;11.588;2023-04-03T05:53:07;2.25;;;1.73;;
42420;SDS011;28063;48.140;11.588;2023-04-03T05:58:05;1.83;;;1.60;;
42420;SDS011;28063;48.140;11.588;2023-04-03T06:00:31;2.17;;;1.88;;
42420;SDS011;28063;48.140;11.588;2023-04-03T06:02:56;2.40;;;2.15;;
42420;SDS011;28063;48.140;11.588;2023-04-03T06:05:22;3.25;;;1.98;;
42420;SDS011;28063;48.140;11.588;2023-04-03T06:07:48;2.55;;;1.83;;
42420;SDS011;28063;48.140;11.588;2023-04-03T06:10:14;2.67;;;1.70;;
42420;SDS011;28063;48.140;11.588;2023-04-03T06:12:40;3.80;;;2.47;;
42420;SDS011;28063;48.140;11.588;2023-04-03T06:15:06;2.28;;;2.08;;
42420;SDS011;28063;48.140;11.588;2023-04-03T06:17:35;3.53;;;1.90;;
42420;SDS011;28063;48.140;11.588;2023-04-03T06:20:02;2.17;;;1.65;;
42420;SDS011;28063;48.140;11.588;2023-04-03T06:22:28;4.95;;;2.40;;
42420;SDS011;28063;48.140;11.588;2023-04-03T06:24:55;2.92;;;2.15;;
42420;SDS011;28063;48.140;11.588;2023-04-03T06:27:21;4.03;;;3.13;;
42420;SDS011;28063;48.140;11.588;2023-04-03T06:29:47;3.47;;;2.47;;
42420;SDS011;28063;48.140;11.588;2023-04-03T06:32:13;5.60;;;2.55;;
42420;SDS011;28063;48.140;11.588;2023-04-03T06:34:41;3.95;;;2.60;;
42420;SDS011;28063;48.140;11.588;2023-04-03T06:37:18;4.30;;;2.63;;
42420;SDS011;28063;48.140;11.588;2023-04-03T06:39:45;8.48;;;2.40;;
42420;SDS011;28063;48.140;11.588;2023-04-03T06:42:11;5.47;;;2.88;;
42420;SDS011;28063;48.140;11.588;2023-04-03T06:44:38;4.47;;;2.92;;
42420;SDS011;28063;48.140;11.588;2023-04-03T06:47:04;3.03;;;2.25;;
42420;SDS011;28063;48.140;11.588;2023-04-03T06:49:30;3.60;;;2.47;;
42420;SDS011;28063;48.140;11.588;2023-04-03T06:51:56;2.97;;;2.47;;
42420;SDS011;28063;48.140;11.588;2023-04-03T06:54:22;3.65;;;1.92;;
42420;SDS011;28063;48.140;11.588;2023-04-03T06:56:48;5.07;;;3.10;;
42420;SDS011;28063;48.140;11.588;2023-04-03T06:59:14;2.83;;;2.35;;
42420;SDS011;28063;48.140;11.588;2023-04-03T07:01:40;3.95;;;2.72;;
42420;SDS011;28063;48.140;11.588;2023-04-03T07:04:06;7.53;;;3.10;;
42420;SDS011;28063;48.140;11.588;2023-04-03T07:06:33;4.03;;;2.55;;
42420;SDS011;28063;48.140;11.588;2023-04-03T07:09:00;6.45;;;2.70;;
42420;SDS011;28063;48.140;11.588;2023-04-03T07:11:26;8.15;;;2.95;;
42420;SDS011;28063;48.140;11.588;2023-04-03T07:13:52;4.07;;;2.60;;
42420;SDS011;28063;48.140;11.588;2023-04-03T07:16:18;4.18;;;2.42;;
42420;SDS011;28063;48.140;11.588;2023-04-03T07:18:45;3.45;;;2.33;;
42420;SDS011;28063;48.140;11.588;2023-04-03T07:21:11;5.78;;;2.53;;
42420;SDS011;28063;48.140;11.588;2023-04-03T07:23:38;6.35;;;2.83;;
42420;SDS011;28063;48.140;11.588;2023-04-03T07:26:04;4.88;;;2.40;;
42420;SDS011;28063;48.140;11.588;2023-04-03T07:28:31;4.57;;;2.50;;
42420;SDS011;28063;48.140;11.588;2023-04-03T07:31:05;6.35;;;2.78;;
42420;SDS011;28063;48.140;11.588;2023-04-03T07:33:33;4.40;;;3.08;;
42420;SDS011;28063;48.140;11.588;2023-04-03T07:36:00;3.45;;;2.92;;
42420;SDS011;28063;48.140;11.588;2023-04-03T07:38:26;6.05;;;2.97;;
42420;SDS011;28063;48.140;11.588;2023-04-03T07:40:52;6.50;;;3.35;;
42420;SDS011;28063;48.140;11.588;2023-04-03T07:43:18;4.38;;;3.08;;
42420;SDS011;28063;48.140;11.588;2023-04-03T07:45:45;7.13;;;3.70;;
42420;SDS011;28063;48.140;11.588;2023-04-03T07:48:15;8.10;;;3.08;;
42420;SDS011;28063;48.140;11.588;2023-04-03T07:50:42;6.60;;;3.00;;
42420;SDS011;28063;48.140;11.588;2023-04-03T07:53:10;7.10;;;3.10;;
42420;SDS011;28063;48.140;11.588;2023-04-03T07:55:36;3.75;;;2.58;;
42420;SDS011;28063;48.140;11.588;2023-04-03T07:58:08;5.17;;;2.97;;
42420;SDS011;28063;48.140;11.588;2023-04-03T08:00:39;5.82;;;3.45;;
42420;SDS011;28063;48.140;11.588;2023-04-03T08:03:05;6.88;;;3.90;;
42420;SDS011;28063;48.140;11.588;2023-04-03T08:05:36;4.93;;;3.35;;
42420;SDS011;28063;48.140;11.588;2023-04-03T08:08:09;5.68;;;3.28;;
42420;SDS011;28063;48.140;11.588;2023-04-03T08:10:37;6.82;;;3.45;;
42420;SDS011;28063;48.140;11.588;2023-04-03T08:13:03;7.30;;;3.58;;
42420;SDS011;28063;48.140;11.588;2023-04-03T08:15:29;7.68;;;3.42;;
42420;SDS011;28063;48.140;11.588;2023-04-03T08:17:55;9.82;;;4.03;;
42420;SDS011;28063;48.140;11.588;2023-04-03T08:20:21;8.15;;;4.53;;
42420;SDS011;28063;48.140;11.588;2023-04-03T08:22:47;12.35;;;5.03;;
42420;SDS011;28063;48.140;11.588;2023-04-03T08:25:13;8.43;;;4.22;;
42420;SDS011;28063;48.140;11.588;2023-04-03T08:27:39;5.60;;;3.38;;
42420;SDS011;28063;48.140;11.588;2023-04-03T08:30:05;3.72;;;3.13;;
42420;SDS011;28063;48.140;11.588;2023-04-03T08:32:33;4.60;;;3.45;;
42420;SDS011;28063;48.140;11.588;2023-04-03T08:34:59;3.25;;;2.53;;
42420;SDS011;28063;48.140;11.588;2023-04-03T08:37:25;6.13;;;3.20;;
42420;SDS011;28063;48.140;11.588;2023-04-03T08:39:51;4.85;;;3.10;;
42420;SDS011;28063;48.140;11.588;2023-04-03T08:42:35;6.57;;;3.40;;
42420;SDS011;28063;48.140;11.588;2023-04-03T08:45:30;5.85;;;3.20;;
42420;SDS011;28063;48.140;11.588;2023-04-03T08:50:59;5.03;;;3.30;;
42420;SDS011;28063;48.140;11.588;2023-04-03T08:53:31;6.70;;;3.33;;
42420;SDS011;28063;48.140;11.588;2023-04-03T08:56:05;5.80;;;3.50;;
42420;SDS011;28063;48.140;11.588;2023-04-03T08:59:19;6.43;;;3.40;;
42420;SDS011;28063;48.140;11.588;2023-04-03T09:01:34;6.95;;;3.17;;
42420;SDS011;28063;48.140;11.588;2023-04-03T09:04:14;6.15;;;3.45;;
42420;SDS011;28063;48.140;11.588;2023-04-03T09:07:25;5.40;;;3.17;;
42420;SDS011;28063;48.140;11.588;2023-04-03T09:09:38;5.50;;;3.40;;
42420;SDS011;28063;48.140;11.588;2023-04-03T09:12:17;5.25;;;3.47;;
42420;SDS011;28063;48.140;11.588;2023-04-03T09:15:01;6.05;;;3.20;;
42420;SDS011;28063;48.140;11.588;2023-04-03T09:25:50;4.60;;;3.25;;
42420;SDS011;28063;48.140;11.588;2023-04-03T09:28:21;5.13;;;2.70;;
42420;SDS011;28063;48.140;11.588;2023-04-03T09:30:47;5.43;;;2.83;;
42420;SDS011;28063;48.140;11.588;2023-04-03T09:33:12;4.68;;;2.50;;
42420;SDS011;28063;48.140;11.588;2023-04-03T09:35:39;5.70;;;2.85;;
42420;SDS011;28063;48.140;11.588;2023-04-03T09:40:44;4.97;;;2.58;;
42420;SDS011;28063;48.140;11.588;2023-04-03T09:46:16;4.28;;;2.60;;
42420;SDS011;28063;48.140;11.588;2023-04-03T09:49:03;2.88;;;1.88;;
42420;SDS011;28063;48.140;11.588;2023-04-03T09:51:30;3.75;;;2.13;;
42420;SDS011;28063;48.140;11.588;2023-04-03T09:53:57;2.55;;;2.17;;
42420;SDS011;28063;48.140;11.588;2023-04-03T09:56:24;6.65;;;2.63;;
42420;SDS011;28063;48.140;11.588;2023-04-03T10:04:09;4.57;;;2.20;;
42420;SDS011;28063;48.140;11.588;2023-04-03T10:06:40;2.40;;;1.35;;
42420;SDS011;28063;48.140;11.588;2023-04-03T10:11:57;3.97;;;2.03;;
42420;SDS011;28063;48.140;11.588;2023-04-03T10:15:17;5.78;;;2.40;;
42420;SDS011;28063;48.140;11.588;2023-04-03T10:20:39;4.28;;;2.70;;
42420;SDS011;28063;48.140;11.588;2023-04-03T10:28:43;4.67;;;2.20;;
42420;SDS011;28063;48.140;11.588;2023-04-03T10:45:24;5.53;;;2.65;;
42420;SDS011;28063;48.140;11.588;2023-04-03T10:58:39;6.72;;;3.00;;
42420;SDS011;28063;48.140;11.588;2023-04-03T11:01:11;5.90;;;2.75;;
42420;SDS011;28063;48.140;11.588;2023-04-03T11:03:53;6.85;;;2.50;;
42420;SDS011;28063;48.140;11.588;2023-04-03T11:08:53;4.03;;;2.42;;
42420;SDS011;28063;48.140;11.588;2023-04-03T11:11:37;4.10;;;2.20;;
42420;SDS011;28063;48.140;11.588;2023-04-03T11:14:09;3.85;;;2.22;;
42420;SDS011;28063;48.140;11.588;2023-04-03T11:16:42;4.75;;;2.67;;
42420;SDS011;28063;48.140;11.588;2023-04-03T11:19:14;5.18;;;2.35;;
42420;SDS011;28063;48.140;11.588;2023-04-03T11:22:33;5.35;;;2.38;;
42420;SDS011;28063;48.140;11.588;2023-04-03T11:24:50;4.30;;;2.17;;
42420;SDS011;28063;48.140;11.588;2023-04-03T11:27:41;3.95;;;1.85;;
42420;SDS011;28063;48.140;11.588;2023-04-03T11:30:11;2.70;;;1.65;;
42420;SDS011;28063;48.140;11.588;2023-04-03T11:35:34;2.42;;;1.65;;
42420;SDS011;28063;48.140;11.588;2023-04-03T11:38:01;5.22;;;2.25;;
42420;SDS011;28063;48.140;11.588;2023-04-03T11:40:32;4.22;;;1.65;;
42420;SDS011;28063;48.140;11.588;2023-04-03T11:43:15;2.45;;;1.60;;
42420;SDS011;28063;48.140;11.588;2023-04-03T11:48:44;4.60;;;1.45;;
42420;SDS011;28063;48.140;11.588;2023-04-03T11:53:38;1.63;;;1.30;;
42420;SDS011;28063;48.140;11.588;2023-04-03T12:01:45;1.63;;;1.38;;
42420;SDS011;28063;48.140;11.588;2023-04-03T12:04:12;3.22;;;1.38;;
42420;SDS011;28063;48.140;11.588;2023-04-03T12:09:24;3.85;;;1.45;;
42420;SDS011;28063;48.140;11.588;2023-04-03T12:12:21;2.95;;;1.27;;
42420;SDS011;28063;48.140;11.588;2023-04-03T12:14:47;1.65;;;1.30;;
42420;SDS011;28063;48.140;11.588;2023-04-03T12:17:20;2.60;;;1.10;;
42420;SDS011;28063;48.140;11.588;2023-04-03T12:19:48;3.50;;;1.33;;
42420;SDS011;28063;48.140;11.588;2023-04-03T12:22:15;2.35;;;1.15;;
42420;SDS011;28063;48.140;11.588;2023-04-03T12:24:45;3.20;;;1.40;;
42420;SDS011;28063;48.140;11.588;2023-04-03T12:46:38;1.63;;;0.70;;
42420;SDS011;28063;48.140;11.588;2023-04-03T12:49:30;0.88;;;0.60;;
42420;SDS011;28063;48.140;11.588;2023-04-03T12:52:05;2.65;;;1.10;;
42420;SDS011;28063;48.140;11.588;2023-04-03T12:54:50;1.75;;;0.90;;
42420;SDS011;28063;48.140;11.588;2023-04-03T12:59:46;2.25;;;1.20;;
42420;SDS011;28063;48.140;11.588;2023-04-03T13:02:31;4.63;;;1.42;;
42420;SDS011;28063;48.140;11.588;2023-04-03T13:05:08;1.60;;;1.10;;
42420;SDS011;28063;48.140;11.588;2023-04-03T13:07:38;2.42;;;1.27;;
42420;SDS011;28063;48.140;11.588;2023-04-03T13:12:35;2.60;;;1.10;;
42420;SDS011;28063;48.140;11.588;2023-04-03T13:17:44;1.67;;;1.10;;
42420;SDS011;28063;48.140;11.588;2023-04-03T13:20:17;1.05;;;0.88;;
42420;SDS011;28063;48.140;11.588;2023-04-03T13:22:48;2.22;;;1.05;;
42420;SDS011;28063;48.140;11.588;2023-04-03T13:25:15;1.65;;;0.82;;
42420;SDS011;28063;48.140;11.588;2023-04-03T13:27:42;3.97;;;1.20;;
42420;SDS011;28063;48.140;11.588;2023-04-03T13:33:17;1.52;;;0.93;;
42420;SDS011;28063;48.140;11.588;2023-04-03T13:35:45;2.78;;;1.02;;
42420;SDS011;28063;48.140;11.588;2023-04-03T13:41:04;1.65;;;0.88;;
42420;SDS011;28063;48.140;11.588;2023-04-03T13:43:46;2.42;;;1.50;;
42420;SDS011;28063;48.140;11.588;2023-04-03T13:48:42;1.85;;;1.10;;
42420;SDS011;28063;48.140;11.588;2023-04-03T13:58:54;1.83;;;1.20;;
42420;SDS011;28063;48.140;11.588;2023-04-03T14:01:32;1.15;;;0.93;;
42420;SDS011;28063;48.140;11.588;2023-04-03T14:04:10;4.47;;;1.30;;
42420;SDS011;28063;48.140;11.588;2023-04-03T14:06:38;1.38;;;1.00;;
42420;SDS011;28063;48.140;11.588;2023-04-03T14:09:05;4.15;;;1.20;;
42420;SDS011;28063;48.140;11.588;2023-04-03T14:11:31;1.70;;;0.93;;
42420;SDS011;28063;48.140;11.588;2023-04-03T14:13:57;2.88;;;0.98;;
42420;SDS011;28063;48.140;11.588;2023-04-03T14:16:30;3.45;;;1.20;;
42420;SDS011;28063;48.140;11.588;2023-04-03T14:18:57;2.30;;;0.77;;
42420;SDS011;28063;48.140;11.588;2023-04-03T14:21:23;1.42;;;0.93;;
42420;SDS011;28063;48.140;11.588;2023-04-03T14:23:49;2.25;;;1.00;;
42420;SDS011;28063;48.140;11.588;2023-04-03T14:26:22;1.05;;;0.80;;
42420;SDS011;28063;48.140;11.588;2023-04-03T14:28:52;1.63;;;1.27;;
42420;SDS011;28063;48.140;11.588;2023-04-03T14:31:20;2.70;;;0.95;;
42420;SDS011;28063;48.140;11.588;2023-04-03T14:33:47;2.05;;;0.90;;
42420;SDS011;28063;48.140;11.588;2023-04-03T14:38:40;1.75;;;0.90;;
42420;SDS011;28063;48.140;11.588;2023-04-03T14:41:08;1.00;;;0.80;;
42420;SDS011;28063;48.140;11.588;2023-04-03T14:43:37;2.10;;;1.20;;
42420;SDS011;28063;48.140;11.588;2023-04-03T14:46:03;1.30;;;0.80;;
42420;SDS011;28063;48.140;11.588;2023-04-03T14:48:30;1.92;;;1.20;;
42420;SDS011;28063;48.140;11.588;2023-04-03T14:50:56;2.25;;;1.25;;
42420;SDS011;28063;48.140;11.588;2023-04-03T14:53:22;1.42;;;1.00;;
42420;SDS011;28063;48.140;11.588;2023-04-03T14:55:49;2.38;;;1.38;;
42420;SDS011;28063;48.140;11.588;2023-04-03T14:58:18;0.90;;;0.70;;
42420;SDS011;28063;48.140;11.588;2023-04-03T15:00:44;3.22;;;1.25;;
42420;SDS011;28063;48.140;11.588;2023-04-03T15:03:14;2.45;;;0.93;;
42420;SDS011;28063;48.140;11.588;2023-04-03T15:05:46;4.38;;;1.30;;
42420;SDS011;28063;48.140;11.588;2023-04-03T15:08:23;1.00;;;0.77;;
42420;SDS011;28063;48.140;11.588;2023-04-03T15:10:51;1.90;;;1.13;;
42420;SDS011;28063;48.140;11.588;2023-04-03T15:13:18;2.55;;;0.80;;
42420;SDS011;28063;48.140;11.588;2023-04-03T15:15:45;1.13;;;0.80;;
42420;SDS011;28063;48.140;11.588;2023-04-03T15:18:22;4.18;;;1.10;;
42420;SDS011;28063;48.140;11.588;2023-04-03T15:20:51;1.85;;;0.88;;
42420;SDS011;28063;48.140;11.588;2023-04-03T15:23:17;1.67;;;0.75;;
42420;SDS011;28063;48.140;11.588;2023-04-03T15:25:44;1.25;;;0.82;;
42420;SDS011;28063;48.140;11.588;2023-04-03T15:28:44;0.88;;;0.60;;
42420;SDS011;28063;48.140;11.588;2023-04-03T15:31:07;1.95;;;0.75;;
42420;SDS011;28063;48.140;11.588;2023-04-03T15:33:33;1.83;;;0.70;;
42420;SDS011;28063;48.140;11.588;2023-04-03T15:36:00;0.88;;;0.82;;
42420;SDS011;28063;48.140;11.588;2023-04-03T15:38:26;1.85;;;0.80;;
42420;SDS011;28063;48.140;11.588;2023-04-03T15:40:51;2.88;;;0.90;;
42420;SDS011;28063;48.140;11.588;2023-04-03T15:43:18;2.45;;;0.90;;
42420;SDS011;28063;48.140;11.588;2023-04-03T15:45:44;2.72;;;0.90;;
42420;SDS011;28063;48.140;11.588;2023-04-03T15:48:11;3.08;;;0.90;;
42420;SDS011;28063;48.140;11.588;2023-04-03T15:50:37;4.20;;;1.00;;
42420;SDS011;28063;48.140;11.588;2023-04-03T15:53:03;2.85;;;1.33;;
42420;SDS011;28063;48.140;11.588;2023-04-03T15:55:30;1.27;;;0.57;;
42420;SDS011;28063;48.140;11.588;2023-04-03T15:57:57;0.90;;;0.57;;
42420;SDS011;28063;48.140;11.588;2023-04-03T16:00:23;1.73;;;0.73;;
42420;SDS011;28063;48.140;11.588;2023-04-03T16:02:51;4.05;;;0.73;;
42420;SDS011;28063;48.140;11.588;2023-04-03T16:05:20;1.50;;;0.70;;
42420;SDS011;28063;48.140;11.588;2023-04-03T16:07:46;1.98;;;0.98;;
42420;SDS011;28063;48.140;11.588;2023-04-03T16:10:12;1.65;;;0.90;;
42420;SDS011;28063;48.140;11.588;2023-04-03T16:12:39;1.83;;;1.05;;
42420;SDS011;28063;48.140;11.588;2023-04-03T16:15:06;2.85;;;0.80;;
42420;SDS011;28063;48.140;11.588;2023-04-03T16:17:33;1.45;;;0.82;;
42420;SDS011;28063;48.140;11.588;2023-04-03T16:20:00;2.13;;;1.20;;
42420;SDS011;28063;48.140;11.588;2023-04-03T16:22:29;3.58;;;1.15;;
42420;SDS011;28063;48.140;11.588;2023-04-03T16:24:55;2.28;;;1.23;;
42420;SDS011;28063;48.140;11.588;2023-04-03T16:27:21;5.13;;;1.60;;
42420;SDS011;28063;48.140;11.588;2023-04-03T16:29:47;1.48;;;1.10;;
42420;SDS011;28063;48.140;11.588;2023-04-03T16:32:13;2.40;;;1.23;;
42420;SDS011;28063;48.140;11.588;2023-04-03T16:34:39;1.48;;;1.00;;
42420;SDS011;28063;48.140;11.588;2023-04-03T16:37:06;1.17;;;0.70;;
42420;SDS011;28063;48.140;11.588;2023-04-03T16:39:33;2.63;;;1.23;;
42420;SDS011;28063;48.140;11.588;2023-04-03T16:42:00;1.73;;;1.38;;
42420;SDS011;28063;48.140;11.588;2023-04-03T16:44:25;2.45;;;0.90;;
42420;SDS011;28063;48.140;11.588;2023-04-03T16:46:51;1.17;;;1.00;;
42420;SDS011;28063;48.140;11.588;2023-04-03T16:49:17;2.50;;;1.13;;
42420;SDS011;28063;48.140;11.588;2023-04-03T16:51:45;3.40;;;1.38;;
42420;SDS011;28063;48.140;11.588;2023-04-03T16:54:11;0.63;;;0.57;;